createdAt,value
2023-05-09T00:00:18.031Z,100.00
2023-05-09T00:02:47.952Z,100.00
2023-05-09T00:05:15.961Z,100.00
2023-05-09T00:07:43.950Z,100.00
2023-05-09T00:10:11.955Z,100.00
2023-05-09T00:12:39.781Z,100.00
2023-05-09T00:15:09.312Z,100.00
2023-05-09T00:17:38.493Z,100.00
2023-05-09T00:20:12.419Z,100.00
2023-05-09T00:22:41.137Z,100.00
2023-05-09T00:25:10.474Z,100.00
2023-05-09T00:27:38.491Z,100.00
2023-05-09T00:30:07.332Z,100.00
2023-05-09T00:32:35.734Z,100.00
2023-05-09T00:35:03.697Z,100.00
2023-05-09T00:37:32.847Z,100.00
2023-05-09T00:40:00.610Z,100.00
2023-05-09T00:42:28.420Z,100.00
2023-05-09T00:44:56.169Z,100.00
2023-05-09T00:47:24.885Z,100.00
2023-05-09T00:49:52.710Z,100.00
2023-05-09T00:52:23.415Z,100.00
2023-05-09T00:54:53.218Z,100.00
2023-05-09T00:57:21.023Z,100.00
2023-05-09T00:59:48.847Z,100.00
2023-05-09T01:02:18.263Z,100.00
2023-05-09T01:04:46.968Z,100.00
2023-05-09T01:07:20.465Z,100.00
2023-05-09T01:09:56.102Z,100.00
2023-05-09T01:12:31.362Z,100.00
2023-05-09T01:15:04.905Z,100.00
2023-05-09T01:17:40.003Z,100.00
2023-05-09T01:20:15.720Z,100.00
2023-05-09T01:22:48.320Z,100.00
2023-05-09T01:25:39.068Z,100.00
2023-05-09T01:28:15.327Z,100.00
2023-05-09T01:30:48.014Z,100.00
2023-05-09T01:33:20.381Z,100.00
2023-05-09T01:35:52.565Z,100.00
2023-05-09T01:38:24.901Z,100.00
2023-05-09T01:40:55.179Z,100.00
2023-05-09T01:43:26.701Z,100.00
2023-05-09T01:45:57.103Z,100.00
2023-05-09T01:48:27.102Z,100.00
2023-05-09T01:50:55.828Z,100.00
2023-05-09T01:53:25.767Z,100.00
2023-05-09T01:55:53.946Z,100.00
2023-05-09T01:58:23.156Z,100.00
2023-05-09T02:00:52.150Z,100.00
2023-05-09T02:03:22.357Z,100.00
2023-05-09T02:05:51.592Z,100.00
2023-05-09T02:08:21.752Z,100.00
2023-05-09T02:10:50.159Z,100.00
2023-05-09T02:13:18.331Z,100.00
2023-05-09T02:15:46.535Z,100.00
2023-05-09T02:18:14.313Z,100.00
2023-05-09T02:20:43.520Z,100.00
2023-05-09T02:23:11.524Z,100.00
2023-05-09T02:25:40.687Z,100.00
2023-05-09T02:28:10.036Z,100.00
2023-05-09T02:30:42.309Z,100.00
2023-05-09T02:33:12.713Z,100.00
2023-05-09T02:35:43.099Z,100.00
2023-05-09T02:38:13.141Z,100.00
2023-05-09T02:40:43.412Z,100.00
2023-05-09T02:43:11.501Z,100.00
2023-05-09T02:45:39.356Z,100.00
2023-05-09T02:48:08.990Z,100.00
2023-05-09T02:50:38.246Z,100.00
2023-05-09T02:53:06.277Z,100.00
2023-05-09T02:55:38.414Z,100.00
2023-05-09T02:58:13.290Z,100.00
2023-05-09T03:00:42.323Z,100.00
2023-05-09T03:03:10.167Z,100.00
2023-05-09T03:05:38.200Z,100.00
2023-05-09T03:08:06.536Z,100.00
2023-05-09T03:10:35.655Z,100.00
2023-05-09T03:13:03.514Z,100.00
2023-05-09T03:15:31.359Z,100.00
2023-05-09T03:17:59.069Z,100.00
2023-05-09T03:20:27.788Z,100.00
2023-05-09T03:22:55.638Z,100.00
2023-05-09T03:25:26.179Z,100.00
2023-05-09T03:27:55.344Z,100.00
2023-05-09T03:30:23.059Z,100.00
2023-05-09T03:32:50.873Z,100.00
2023-05-09T03:35:18.751Z,100.00
2023-05-09T03:37:46.461Z,100.00
2023-05-09T03:40:14.400Z,100.00
2023-05-09T03:42:42.130Z,100.00
2023-05-09T03:45:12.592Z,100.00
2023-05-09T03:47:40.573Z,100.00
2023-05-09T03:50:09.592Z,100.00
2023-05-09T03:52:37.519Z,100.00
2023-05-09T03:55:05.982Z,100.00
2023-05-09T03:57:35.599Z,100.00
2023-05-09T04:00:04.880Z,100.00
2023-05-09T04:02:34.443Z,100.00
2023-05-09T04:05:04.406Z,100.00
2023-05-09T04:07:32.751Z,100.00
2023-05-09T04:10:01.145Z,100.00
2023-05-09T04:12:28.874Z,100.00
2023-05-09T04:14:56.652Z,100.00
2023-05-09T04:17:24.812Z,100.00
2023-05-09T04:19:54.121Z,100.00
2023-05-09T04:22:22.173Z,100.00
2023-05-09T04:24:50.143Z,100.00
2023-05-09T04:27:17.862Z,100.00
2023-05-09T04:29:45.647Z,100.00
2023-05-09T04:32:14.642Z,100.00
2023-05-09T04:34:42.493Z,100.00
2023-05-09T04:37:11.896Z,100.00
2023-05-09T04:39:39.715Z,100.00
2023-05-09T04:42:07.577Z,100.00
2023-05-09T04:44:35.853Z,100.00
2023-05-09T04:47:03.644Z,100.00
2023-05-09T04:49:31.353Z,100.00
2023-05-09T04:51:59.309Z,100.00
2023-05-09T04:54:28.440Z,100.00
2023-05-09T04:57:03.154Z,100.00
2023-05-09T04:59:34.570Z,100.00
2023-05-09T05:02:02.293Z,100.00
2023-05-09T05:04:30.155Z,100.00
2023-05-09T05:06:57.930Z,100.00
2023-05-09T05:09:25.991Z,100.00
2023-05-09T05:12:01.772Z,100.00
2023-05-09T05:14:31.116Z,100.00
2023-05-09T05:16:58.808Z,100.00
2023-05-09T05:19:26.608Z,100.00
2023-05-09T05:21:57.423Z,100.00
2023-05-09T05:24:25.251Z,100.00
2023-05-09T05:26:52.970Z,100.00
2023-05-09T05:29:22.345Z,100.00
2023-05-09T05:31:50.101Z,100.00
2023-05-09T05:34:18.288Z,100.00
2023-05-09T05:36:46.514Z,100.00
2023-05-09T05:39:14.234Z,100.00
2023-05-09T05:41:42.001Z,100.00
2023-05-09T05:44:09.699Z,100.00
2023-05-09T05:46:38.778Z,100.00
2023-05-09T05:49:06.522Z,100.00
2023-05-09T05:51:34.484Z,100.00
2023-05-09T05:54:02.357Z,100.00
2023-05-09T05:56:30.092Z,100.00
2023-05-09T05:58:57.815Z,100.00
2023-05-09T06:01:25.706Z,100.00
2023-05-09T06:03:56.130Z,100.00
2023-05-09T06:06:24.429Z,100.00
2023-05-09T06:08:52.105Z,100.00
2023-05-09T06:11:21.194Z,100.00
2023-05-09T06:13:48.928Z,100.00
2023-05-09T06:16:19.841Z,100.00
2023-05-09T06:18:48.313Z,100.00
2023-05-09T06:21:17.444Z,100.00
2023-05-09T06:24:01.289Z,100.00
2023-05-09T06:26:30.066Z,100.00
2023-05-09T06:28:57.943Z,100.00
2023-05-09T06:31:26.205Z,100.00
2023-05-09T06:33:54.004Z,100.00
2023-05-09T06:36:23.212Z,100.00
2023-05-09T06:38:50.973Z,100.00
2023-05-09T06:41:18.708Z,100.00
2023-05-09T06:43:46.654Z,100.00
2023-05-09T06:46:14.492Z,100.00
2023-05-09T06:48:42.413Z,100.00
2023-05-09T06:51:11.456Z,100.00
2023-05-09T06:53:40.821Z,100.00
2023-05-09T06:56:08.778Z,100.00
2023-05-09T06:58:36.547Z,100.00
2023-05-09T07:01:06.452Z,100.00
2023-05-09T07:03:34.313Z,100.00
2023-05-09T07:06:02.075Z,100.00
2023-05-09T07:08:29.845Z,100.00
2023-05-09T07:10:59.232Z,100.00
2023-05-09T07:13:27.022Z,100.00
2023-05-09T07:15:54.791Z,100.00
2023-05-09T07:18:22.695Z,100.00
2023-05-09T07:20:51.018Z,100.00
2023-05-09T07:23:18.716Z,100.00
2023-05-09T07:25:46.640Z,100.00
2023-05-09T07:28:15.787Z,100.00
2023-05-09T07:30:43.760Z,100.00
2023-05-09T07:33:11.703Z,100.00
2023-05-09T07:35:39.576Z,100.00
2023-05-09T07:38:07.666Z,100.00
2023-05-09T07:40:36.564Z,100.00
2023-05-09T07:43:04.298Z,100.00
2023-05-09T07:45:33.632Z,100.00
2023-05-09T07:48:01.576Z,100.00
2023-05-09T07:50:29.357Z,100.00
2023-05-09T07:52:57.076Z,100.00
2023-05-09T07:55:24.870Z,100.00
2023-05-09T07:57:52.663Z,100.00
2023-05-09T08:00:23.493Z,100.00
2023-05-09T08:02:53.426Z,100.00
2023-05-09T08:05:21.294Z,100.00
2023-05-09T08:07:49.102Z,100.00
2023-05-09T08:10:17.241Z,100.00
2023-05-09T08:12:45.025Z,100.00
2023-05-09T08:15:13.389Z,100.00
2023-05-09T08:17:41.337Z,100.00
2023-05-09T08:20:13.400Z,83.85
2023-05-09T08:22:41.694Z,90.38
2023-05-09T08:25:10.153Z,68.01
2023-05-09T08:27:37.919Z,75.98
2023-05-09T08:30:07.026Z,84.37
2023-05-09T08:32:34.915Z,88.76
2023-05-09T08:35:02.783Z,100.00
2023-05-09T08:37:31.922Z,87.04
2023-05-09T08:39:59.829Z,84.24
2023-05-09T08:42:29.081Z,90.52
2023-05-09T08:44:57.165Z,96.53
2023-05-09T08:47:26.032Z,100.00
2023-05-09T08:49:54.259Z,100.00
2023-05-09T08:52:22.683Z,87.86
2023-05-09T08:54:53.358Z,95.02
2023-05-09T08:57:21.344Z,100.00
2023-05-09T08:59:50.762Z,100.00
2023-05-09T09:02:19.140Z,100.00
2023-05-09T09:04:47.152Z,100.00
2023-05-09T09:07:18.719Z,100.00
2023-05-09T09:09:48.172Z,100.00
2023-05-09T09:12:18.707Z,100.00
2023-05-09T09:14:50.494Z,100.00
2023-05-09T09:17:21.475Z,100.00
2023-05-09T09:19:51.307Z,100.00
2023-05-09T09:22:20.830Z,98.00
2023-05-09T09:24:48.920Z,91.20
2023-05-09T09:27:18.837Z,93.31
2023-05-09T09:29:46.661Z,100.00
2023-05-09T09:32:14.589Z,93.55
2023-05-09T09:34:42.451Z,88.14
2023-05-09T09:37:10.207Z,81.17
2023-05-09T09:39:38.140Z,74.80
2023-05-09T09:42:13.107Z,81.03
2023-05-09T09:44:42.220Z,86.89
2023-05-09T09:47:11.510Z,97.94
2023-05-09T09:49:46.265Z,77.63
2023-05-09T09:52:25.129Z,74.15
2023-05-09T09:54:56.104Z,72.88
2023-05-09T09:57:35.968Z,68.32
2023-05-09T10:00:06.360Z,66.88
2023-05-09T10:02:34.210Z,58.48
2023-05-09T10:05:08.507Z,62.79
2023-05-09T10:07:39.154Z,55.39
2023-05-09T10:10:07.936Z,55.38
2023-05-09T10:12:41.760Z,58.06
2023-05-09T10:15:13.414Z,58.93
2023-05-09T10:17:41.714Z,55.64
2023-05-09T10:20:10.864Z,54.28
2023-05-09T10:22:42.137Z,55.31
2023-05-09T10:25:16.110Z,57.69
2023-05-09T10:27:48.054Z,58.24
2023-05-09T10:30:19.998Z,54.34
2023-05-09T10:32:53.082Z,54.02
2023-05-09T10:35:25.701Z,60.87
2023-05-09T10:37:56.915Z,63.64
2023-05-09T10:40:25.235Z,70.49
2023-05-09T10:42:52.993Z,70.83
2023-05-09T10:45:23.166Z,73.37
2023-05-09T10:47:53.019Z,78.37
2023-05-09T10:50:22.527Z,75.98
2023-05-09T10:53:14.244Z,72.71
2023-05-09T10:55:50.841Z,71.43
2023-05-09T10:58:23.798Z,64.97
2023-05-09T11:00:55.353Z,59.23
2023-05-09T11:03:25.975Z,57.60
2023-05-09T11:05:55.494Z,61.10
2023-05-09T11:08:26.697Z,62.57
2023-05-09T11:10:55.616Z,63.36
2023-05-09T11:13:25.297Z,68.97
2023-05-09T11:16:22.000Z,62.92
2023-05-09T11:18:55.965Z,63.03
2023-05-09T11:21:23.803Z,67.50
2023-05-09T11:23:55.356Z,70.34
2023-05-09T11:26:23.562Z,62.83
2023-05-09T11:28:54.976Z,62.88
2023-05-09T11:31:24.129Z,64.85
2023-05-09T11:33:58.331Z,63.06
2023-05-09T11:36:32.007Z,59.69
2023-05-09T11:39:07.727Z,63.19
2023-05-09T11:41:41.235Z,60.42
2023-05-09T11:44:16.874Z,58.99
2023-05-09T11:46:46.341Z,61.10
2023-05-09T11:49:14.325Z,63.53
2023-05-09T11:51:42.699Z,65.16
2023-05-09T11:54:14.871Z,58.71
2023-05-09T11:56:43.093Z,58.67
2023-05-09T11:59:13.239Z,59.45
2023-05-09T12:01:43.644Z,59.35
2023-05-09T12:04:13.002Z,62.46
2023-05-09T12:06:48.656Z,62.26
2023-05-09T12:09:16.575Z,59.81
2023-05-09T12:11:50.098Z,59.08
2023-05-09T12:14:28.106Z,60.39
2023-05-09T12:16:55.976Z,61.24
2023-05-09T12:19:26.182Z,62.87
2023-05-09T12:21:58.058Z,60.13
2023-05-09T12:24:26.724Z,60.82
2023-05-09T12:26:54.776Z,64.41
2023-05-09T12:29:23.714Z,65.82
2023-05-09T12:31:53.229Z,62.91
2023-05-09T12:34:21.489Z,66.99
2023-05-09T12:36:51.766Z,61.35
2023-05-09T12:39:21.945Z,61.82
2023-05-09T12:42:01.059Z,66.61
2023-05-09T12:44:30.126Z,67.06
2023-05-09T12:46:59.788Z,63.58
2023-05-09T12:49:28.301Z,64.98
2023-05-09T12:52:04.408Z,62.15
2023-05-09T12:54:32.850Z,67.61
2023-05-09T12:57:01.186Z,63.39
2023-05-09T12:59:31.346Z,66.52
2023-05-09T13:02:01.955Z,66.28
2023-05-09T13:04:30.108Z,58.04
2023-05-09T13:07:00.070Z,61.50
2023-05-09T13:09:28.469Z,61.44
2023-05-09T13:11:56.480Z,58.05
2023-05-09T13:14:24.663Z,59.72
2023-05-09T13:16:52.628Z,60.31
2023-05-09T13:19:22.753Z,57.62
2023-05-09T13:21:50.581Z,57.09
2023-05-09T13:24:19.684Z,52.09
2023-05-09T13:26:47.603Z,53.99
2023-05-09T13:29:15.567Z,54.31
2023-05-09T13:31:43.349Z,55.12
2023-05-09T13:34:11.100Z,56.27
2023-05-09T13:36:38.964Z,60.67
2023-05-09T13:39:06.832Z,56.91
2023-05-09T13:41:37.546Z,57.26
2023-05-09T13:44:06.228Z,57.55
2023-05-09T13:46:35.229Z,57.56
2023-05-09T13:49:03.141Z,61.21
2023-05-09T13:51:30.959Z,62.97
2023-05-09T13:53:58.738Z,66.77
2023-05-09T13:56:26.612Z,66.80
2023-05-09T13:58:55.720Z,68.03
2023-05-09T14:01:23.718Z,69.13
2023-05-09T14:03:52.794Z,63.85
2023-05-09T14:06:20.748Z,63.67
2023-05-09T14:08:48.602Z,67.17
2023-05-09T14:11:16.461Z,67.60
2023-05-09T14:13:44.312Z,69.81
2023-05-09T14:16:13.753Z,71.16
2023-05-09T14:18:41.669Z,73.54
2023-05-09T14:21:09.473Z,70.75
2023-05-09T14:23:37.202Z,78.26
2023-05-09T14:26:05.065Z,91.80
2023-05-09T14:28:32.878Z,98.38
2023-05-09T14:31:00.760Z,100.00
2023-05-09T14:33:29.950Z,96.08
2023-05-09T14:35:57.702Z,99.09
2023-05-09T14:38:25.467Z,100.00
2023-05-09T14:40:53.156Z,100.00
2023-05-09T14:43:22.226Z,100.00
2023-05-09T14:45:49.989Z,100.00
2023-05-09T14:48:17.810Z,98.83
2023-05-09T14:50:46.972Z,100.00
2023-05-09T14:53:15.043Z,100.00
2023-05-09T14:55:43.387Z,100.00
2023-05-09T14:58:13.715Z,98.01
2023-05-09T15:00:41.950Z,100.00
2023-05-09T15:03:10.233Z,96.98
2023-05-09T15:05:38.247Z,100.00
2023-05-09T15:08:08.012Z,100.00
2023-05-09T15:10:35.966Z,100.00
2023-05-09T15:13:05.807Z,100.00
2023-05-09T15:15:33.815Z,100.00
2023-05-09T15:18:02.591Z,100.00
2023-05-09T15:20:30.435Z,100.00
2023-05-09T15:22:58.295Z,100.00
2023-05-09T15:25:27.651Z,100.00
2023-05-09T15:27:55.457Z,100.00
2023-05-09T15:30:23.369Z,100.00
2023-05-09T15:32:51.184Z,100.00
2023-05-09T15:35:19.542Z,100.00
2023-05-09T15:37:47.509Z,100.00
2023-05-09T15:40:15.878Z,100.00
2023-05-09T15:42:48.305Z,100.00
2023-05-09T15:45:16.804Z,100.00
2023-05-09T15:47:44.530Z,100.00
2023-05-09T15:50:13.266Z,100.00
2023-05-09T15:52:41.136Z,100.00
2023-05-09T15:55:10.746Z,100.00
2023-05-09T15:57:38.621Z,100.00
2023-05-09T16:00:10.046Z,100.00
2023-05-09T16:02:37.875Z,100.00
2023-05-09T16:05:06.149Z,100.00
2023-05-09T16:07:35.761Z,100.00
2023-05-09T16:10:03.924Z,100.00
2023-05-09T16:12:32.837Z,100.00
2023-05-09T16:15:03.430Z,100.00
2023-05-09T16:17:33.385Z,100.00
2023-05-09T16:20:01.994Z,100.00
2023-05-09T16:22:29.906Z,100.00
2023-05-09T16:24:57.715Z,100.00
2023-05-09T16:27:25.506Z,100.00
2023-05-09T16:29:53.310Z,100.00
2023-05-09T16:32:21.165Z,100.00
2023-05-09T16:34:50.754Z,100.00
2023-05-09T16:37:19.258Z,100.00
2023-05-09T16:39:47.108Z,100.00
2023-05-09T16:42:14.900Z,100.00
2023-05-09T16:44:42.706Z,100.00
2023-05-09T16:47:10.502Z,100.00
2023-05-09T16:49:38.745Z,100.00
2023-05-09T16:52:07.855Z,100.00
2023-05-09T16:54:36.085Z,100.00
2023-05-09T16:57:03.784Z,100.00
2023-05-09T16:59:32.791Z,100.00
2023-05-09T17:02:00.586Z,100.00
2023-05-09T17:04:29.324Z,100.00
2023-05-09T17:06:57.139Z,100.00
2023-05-09T17:09:26.593Z,100.00
2023-05-09T17:11:54.343Z,100.00
2023-05-09T17:14:22.321Z,100.00
2023-05-09T17:16:50.148Z,100.00
2023-05-09T17:19:19.046Z,100.00
2023-05-09T17:21:46.854Z,100.00
2023-05-09T17:24:14.683Z,100.00
2023-05-09T17:26:43.866Z,100.00
2023-05-09T17:29:11.652Z,100.00
2023-05-09T17:31:39.445Z,100.00
2023-05-09T17:34:07.300Z,100.00
2023-05-09T17:36:35.030Z,100.00
2023-05-09T17:39:02.767Z,100.00
2023-05-09T17:41:30.588Z,100.00
2023-05-09T17:43:59.731Z,100.00
2023-05-09T17:46:27.517Z,100.00
2023-05-09T17:48:55.275Z,100.00
2023-05-09T17:51:25.707Z,100.00
2023-05-09T17:53:53.698Z,100.00
2023-05-09T17:56:22.423Z,100.00
2023-05-09T17:58:52.989Z,100.00
2023-05-09T18:01:22.506Z,100.00
2023-05-09T18:03:50.455Z,100.00
2023-05-09T18:06:19.270Z,100.00
2023-05-09T18:08:47.213Z,100.00
2023-05-09T18:11:15.506Z,100.00
2023-05-09T18:13:43.227Z,100.00
2023-05-09T18:16:10.990Z,100.00
2023-05-09T18:18:42.590Z,100.00
2023-05-09T18:21:10.428Z,100.00
2023-05-09T18:23:38.244Z,100.00
2023-05-09T18:26:06.153Z,100.00
2023-05-09T18:28:39.411Z,100.00
2023-05-09T18:31:09.385Z,100.00
2023-05-09T18:33:41.936Z,100.00
2023-05-09T18:36:11.258Z,100.00
2023-05-09T18:38:39.789Z,100.00
2023-05-09T18:41:09.116Z,100.00
2023-05-09T18:43:38.764Z,100.00
2023-05-09T18:46:07.532Z,100.00
2023-05-09T18:48:35.410Z,100.00
2023-05-09T18:51:04.858Z,100.00
2023-05-09T18:53:32.674Z,100.00
2023-05-09T18:56:01.954Z,100.00
2023-05-09T18:58:29.691Z,100.00
2023-05-09T19:00:57.520Z,100.00
2023-05-09T19:03:25.419Z,100.00
2023-05-09T19:05:53.226Z,100.00
2023-05-09T19:08:22.502Z,100.00
2023-05-09T19:10:50.464Z,100.00
2023-05-09T19:13:18.457Z,100.00
2023-05-09T19:15:49.068Z,100.00
2023-05-09T19:18:16.783Z,100.00
2023-05-09T19:20:44.655Z,100.00
2023-05-09T19:23:12.500Z,100.00
2023-05-09T19:25:41.914Z,100.00
2023-05-09T19:28:11.080Z,100.00
2023-05-09T19:30:38.818Z,100.00
2023-05-09T19:33:06.767Z,100.00
2023-05-09T19:35:34.726Z,100.00
2023-05-09T19:38:02.528Z,100.00
2023-05-09T19:40:30.273Z,100.00
2023-05-09T19:42:59.383Z,100.00
2023-05-09T19:45:28.841Z,100.00
2023-05-09T19:47:58.904Z,100.00
2023-05-09T19:50:26.753Z,100.00
2023-05-09T19:52:54.779Z,100.00
2023-05-09T19:55:23.084Z,100.00
2023-05-09T19:57:51.166Z,100.00
2023-05-09T20:00:22.908Z,100.00
2023-05-09T20:02:50.770Z,100.00
2023-05-09T20:05:18.581Z,100.00
2023-05-09T20:07:46.428Z,100.00
2023-05-09T20:10:15.632Z,100.00
2023-05-09T20:12:43.598Z,100.00
2023-05-09T20:15:12.126Z,100.00
2023-05-09T20:17:41.247Z,100.00
2023-05-09T20:20:10.851Z,100.00
2023-05-09T20:22:38.642Z,100.00
2023-05-09T20:25:07.042Z,100.00
2023-05-09T20:27:35.477Z,100.00
2023-05-09T20:30:03.674Z,100.00
2023-05-09T20:32:31.898Z,100.00
2023-05-09T20:35:01.008Z,100.00
2023-05-09T20:37:28.848Z,100.00
2023-05-09T20:39:56.672Z,100.00
2023-05-09T20:42:24.444Z,100.00
2023-05-09T20:44:52.191Z,100.00
2023-05-09T20:47:19.990Z,100.00
2023-05-09T20:49:47.745Z,100.00
2023-05-09T20:52:16.908Z,100.00
2023-05-09T20:54:44.659Z,100.00
2023-05-09T20:57:12.347Z,100.00
2023-05-09T20:59:40.660Z,100.00
2023-05-09T21:02:08.910Z,100.00
2023-05-09T21:04:36.785Z,100.00
2023-05-09T21:07:04.516Z,100.00
2023-05-09T21:09:33.667Z,100.00
2023-05-09T21:12:03.671Z,100.00
2023-05-09T21:14:31.762Z,100.00
2023-05-09T21:16:59.515Z,100.00
2023-05-09T21:19:27.320Z,100.00
2023-05-09T21:21:55.843Z,100.00
2023-05-09T21:24:23.572Z,100.00
2023-05-09T21:26:53.393Z,100.00
2023-05-09T21:29:21.493Z,100.00
2023-05-09T21:31:49.231Z,100.00
2023-05-09T21:34:16.943Z,100.00
2023-05-09T21:36:44.650Z,100.00
2023-05-09T21:39:12.366Z,100.00
2023-05-09T21:41:42.700Z,100.00
2023-05-09T21:44:12.308Z,100.00
2023-05-09T21:46:41.118Z,100.00
2023-05-09T21:49:08.981Z,100.00
2023-05-09T21:51:36.738Z,100.00
2023-05-09T21:54:04.544Z,100.00
2023-05-09T21:56:32.341Z,100.00
2023-05-09T21:59:00.048Z,100.00
2023-05-09T22:01:29.400Z,100.00
2023-05-09T22:03:57.503Z,100.00
2023-05-09T22:06:25.377Z,100.00
2023-05-09T22:08:53.080Z,100.00
2023-05-09T22:11:21.150Z,100.00
2023-05-09T22:13:48.954Z,100.00
2023-05-09T22:16:17.459Z,100.00
2023-05-09T22:18:46.678Z,100.00
2023-05-09T22:21:14.404Z,100.00
2023-05-09T22:23:42.175Z,100.00
2023-05-09T22:26:09.929Z,100.00
2023-05-09T22:28:38.057Z,100.00
2023-05-09T22:31:06.985Z,100.00
2023-05-09T22:33:34.951Z,100.00
2023-05-09T22:36:04.281Z,100.00
2023-05-09T22:38:32.011Z,100.00
2023-05-09T22:40:59.742Z,100.00
2023-05-09T22:43:33.823Z,100.00
2023-05-09T22:46:06.831Z,100.00
2023-05-09T22:48:34.649Z,100.00
2023-05-09T22:51:02.433Z,100.00
2023-05-09T22:53:32.711Z,100.00
2023-05-09T22:56:00.794Z,100.00
2023-05-09T22:58:28.561Z,100.00
2023-05-09T23:00:56.383Z,100.00
2023-05-09T23:03:24.315Z,100.00
2023-05-09T23:05:52.345Z,100.00
2023-05-09T23:08:20.283Z,100.00
2023-05-09T23:10:49.396Z,100.00
2023-05-09T23:13:17.190Z,100.00
2023-05-09T23:15:45.254Z,100.00
2023-05-09T23:18:13.004Z,100.00
2023-05-09T23:20:40.758Z,100.00
2023-05-09T23:23:08.798Z,100.00
2023-05-09T23:25:36.520Z,100.00
2023-05-09T23:28:05.884Z,100.00
2023-05-09T23:30:33.611Z,100.00
2023-05-09T23:33:01.518Z,100.00
2023-05-09T23:35:29.235Z,100.00
2023-05-09T23:37:57.008Z,100.00
2023-05-09T23:40:24.696Z,100.00
2023-05-09T23:42:52.427Z,100.00
2023-05-09T23:45:22.001Z,100.00
2023-05-09T23:47:50.154Z,100.00
2023-05-09T23:50:18.331Z,100.00
2023-05-09T23:52:49.270Z,100.00
2023-05-09T23:55:17.310Z,100.00
2023-05-09T23:57:45.056Z,100.00
